createdAt,value
2024-04-11T06:59:43.998Z,8.15
2024-04-11T07:02:12.043Z,7.80
2024-04-11T07:04:39.555Z,7.32
2024-04-11T07:07:09.746Z,6.80
2024-04-11T07:09:40.699Z,6.65
2024-04-11T07:12:29.557Z,6.30
2024-04-11T07:14:57.684Z,7.95
2024-04-11T07:17:28.732Z,6.68
2024-04-11T07:19:59.716Z,6.15
2024-04-11T07:22:29.405Z,6.32
2024-04-11T07:24:57.123Z,6.00
2024-04-11T07:27:25.162Z,6.78
2024-04-11T07:29:53.711Z,6.70
2024-04-11T07:32:22.574Z,6.70
2024-04-11T07:34:51.091Z,6.75
2024-04-11T07:37:18.983Z,6.68
2024-04-11T07:39:47.009Z,6.65
2024-04-11T07:42:37.950Z,6.68
2024-04-11T07:45:06.605Z,6.40
2024-04-11T07:47:47.240Z,7.78
2024-04-11T07:50:25.439Z,7.03
2024-04-11T07:52:53.842Z,6.05
2024-04-11T07:55:24.396Z,5.75
2024-04-11T07:57:53.109Z,5.75
2024-04-11T08:00:28.661Z,6.97
2024-04-11T08:02:57.807Z,6.30
2024-04-11T08:05:26.506Z,5.25
2024-04-11T08:07:54.479Z,6.47
2024-04-11T08:10:21.966Z,6.35
2024-04-11T08:12:49.889Z,6.28
2024-04-11T08:15:17.408Z,6.20
2024-04-11T08:17:45.327Z,5.47
2024-04-11T08:20:16.078Z,5.65
2024-04-11T08:22:44.168Z,5.40
2024-04-11T08:25:13.475Z,5.78
2024-04-11T08:27:43.530Z,5.15
2024-04-11T08:30:12.841Z,5.70
2024-04-11T08:32:42.658Z,5.07
2024-04-11T08:35:10.158Z,5.47
2024-04-11T08:37:39.241Z,5.88
2024-04-11T08:40:11.720Z,5.18
2024-04-11T08:42:40.230Z,6.05
2024-04-11T08:45:08.047Z,5.93
2024-04-11T08:47:36.814Z,5.68
2024-04-11T08:50:07.455Z,6.18
2024-04-11T08:52:38.024Z,5.65
2024-04-11T08:55:07.384Z,5.57
2024-04-11T08:57:35.249Z,5.40
2024-04-11T09:00:10.516Z,5.78
2024-04-11T09:02:38.823Z,5.57
2024-04-11T09:07:48.606Z,5.32
2024-04-11T09:10:20.686Z,5.57
2024-04-11T09:12:49.535Z,5.87
2024-04-11T09:15:17.226Z,5.82
2024-04-11T09:17:46.441Z,5.60
2024-04-11T09:20:16.549Z,4.88
2024-04-11T09:22:55.626Z,5.97
2024-04-11T09:25:27.774Z,5.82
2024-04-11T09:28:02.552Z,4.97
2024-04-11T09:30:34.034Z,5.40
2024-04-11T09:33:06.866Z,5.72
2024-04-11T09:35:48.337Z,5.50
2024-04-11T09:38:20.767Z,5.95
2024-04-11T09:40:51.886Z,5.65
2024-04-11T09:43:28.746Z,5.45
2024-04-11T09:46:05.678Z,5.47
2024-04-11T09:48:43.228Z,4.47
2024-04-11T09:51:16.608Z,5.68
2024-04-11T09:53:44.645Z,5.18
2024-04-11T09:56:17.426Z,4.47
2024-04-11T09:58:49.454Z,5.00
2024-04-11T10:01:32.752Z,4.55
2024-04-11T10:04:15.101Z,5.80
2024-04-11T10:06:45.498Z,5.30
2024-04-11T10:09:19.104Z,4.45
2024-04-11T10:11:53.096Z,4.30
2024-04-11T10:14:24.390Z,4.47
2024-04-11T10:16:57.225Z,4.45
2024-04-11T10:19:29.433Z,4.88
2024-04-11T10:22:07.964Z,6.13
2024-04-11T10:24:41.701Z,4.25
2024-04-11T10:29:49.899Z,4.20
2024-04-11T10:32:24.527Z,5.63
2024-04-11T10:35:00.630Z,4.35
2024-04-11T10:37:34.776Z,3.88
2024-04-11T10:40:03.381Z,4.20
2024-04-11T10:42:39.605Z,4.15
2024-04-11T10:45:12.524Z,4.80
2024-04-11T10:47:41.124Z,3.65
2024-04-11T10:50:16.210Z,4.53
2024-04-11T10:52:47.844Z,4.35
2024-04-11T10:55:37.916Z,4.78
2024-04-11T10:58:24.018Z,4.63
2024-04-11T11:01:02.376Z,4.53
2024-04-11T11:03:45.870Z,4.38
2024-04-11T11:06:33.952Z,4.47
2024-04-11T11:09:12.944Z,3.95
2024-04-11T11:11:48.230Z,4.53
2024-04-11T11:14:19.418Z,4.68
2024-04-11T11:16:52.437Z,4.57
2024-04-11T11:19:20.290Z,4.43
2024-04-11T11:21:52.864Z,4.65
2024-04-11T11:24:26.161Z,4.47
2024-04-11T11:27:01.757Z,4.53
2024-04-11T11:29:31.224Z,4.10
2024-04-11T11:32:03.477Z,4.80
2024-04-11T11:34:32.799Z,4.95
2024-04-11T11:37:04.451Z,4.30
2024-04-11T11:39:37.893Z,4.32
2024-04-11T11:42:23.882Z,4.18
2024-04-11T11:45:01.981Z,3.92
2024-04-11T11:47:35.783Z,4.20
2024-04-11T11:50:20.859Z,4.40
2024-04-11T11:52:54.464Z,4.03
2024-04-11T11:55:27.792Z,4.45
2024-04-11T11:58:00.269Z,4.10
2024-04-11T12:00:34.541Z,4.03
2024-04-11T12:03:21.232Z,4.13
2024-04-11T12:05:57.868Z,4.05
2024-04-11T12:08:26.017Z,3.90
2024-04-11T12:11:14.091Z,4.28
2024-04-11T12:13:52.565Z,3.72
2024-04-11T12:16:22.832Z,4.07
2024-04-11T12:18:54.138Z,4.00
2024-04-11T12:21:28.686Z,3.88
2024-04-11T12:23:58.190Z,4.05
2024-04-11T12:26:28.338Z,4.50
2024-04-11T12:28:57.860Z,3.90
2024-04-11T12:31:27.705Z,4.38
2024-04-11T12:33:58.540Z,3.42
2024-04-11T12:36:58.583Z,3.92
2024-04-11T12:39:42.760Z,4.70
2024-04-11T12:42:12.612Z,4.47
2024-04-11T12:44:40.664Z,4.30
2024-04-11T12:47:15.928Z,4.63
2024-04-11T12:49:59.647Z,4.10
2024-04-11T12:52:31.456Z,4.03
2024-04-11T12:55:02.930Z,4.95
2024-04-11T12:57:31.440Z,3.90
2024-04-11T13:00:10.870Z,4.22
2024-04-11T13:02:42.675Z,4.10
2024-04-11T13:05:15.650Z,4.20
2024-04-11T13:07:44.138Z,3.95
2024-04-11T13:10:12.167Z,3.95
2024-04-11T13:12:45.374Z,4.13
2024-04-11T13:15:21.112Z,5.10
2024-04-11T13:17:54.588Z,4.00
2024-04-11T13:20:30.614Z,4.50
2024-04-11T13:23:12.109Z,4.07
2024-04-11T13:25:46.939Z,4.00
2024-04-11T13:28:14.724Z,4.40
2024-04-11T13:30:48.257Z,4.43
2024-04-11T13:33:19.553Z,4.03
2024-04-11T13:35:53.846Z,4.32
2024-04-11T13:38:24.699Z,4.05
2024-04-11T13:41:10.437Z,3.85
2024-04-11T13:43:44.006Z,4.63
2024-04-11T13:46:13.341Z,3.95
2024-04-11T13:48:52.180Z,3.75
2024-04-11T13:51:37.075Z,4.07
2024-04-11T13:54:11.856Z,4.55
2024-04-11T13:56:40.240Z,4.05
2024-04-11T13:59:10.778Z,4.07
2024-04-11T14:01:52.297Z,4.30
2024-04-11T14:04:40.175Z,4.65
2024-04-11T14:07:08.729Z,4.00
2024-04-11T14:09:41.055Z,4.05
2024-04-11T14:12:11.992Z,4.22
2024-04-11T14:14:40.693Z,4.20
2024-04-11T14:17:14.823Z,3.78
2024-04-11T14:20:15.526Z,5.03
2024-04-11T14:22:49.920Z,4.70
2024-04-11T14:25:22.039Z,5.10
2024-04-11T14:27:50.154Z,4.07
2024-04-11T14:30:27.431Z,3.80
2024-04-11T14:33:10.929Z,4.10
2024-04-11T14:35:57.430Z,4.22
2024-04-11T14:38:34.135Z,4.10
2024-04-11T14:41:06.458Z,4.40
2024-04-11T14:43:41.205Z,4.40
2024-04-11T14:46:13.782Z,4.07
2024-04-11T14:48:41.788Z,4.80
2024-04-11T14:51:18.180Z,4.47
2024-04-11T14:53:48.402Z,4.32
2024-04-11T14:56:19.791Z,4.22
2024-04-11T14:58:55.276Z,4.00
2024-04-11T15:01:32.271Z,4.43
2024-04-11T15:04:06.622Z,4.30
2024-04-11T15:06:35.567Z,3.95
2024-04-11T15:09:30.418Z,4.60
2024-04-11T15:12:05.056Z,4.00
2024-04-11T15:14:35.146Z,4.68
2024-04-11T15:17:21.127Z,4.20
2024-04-11T15:19:53.073Z,3.90
2024-04-11T15:22:24.844Z,4.45
2024-04-11T15:27:21.791Z,4.10
2024-04-11T15:29:58.896Z,4.30
2024-04-11T15:32:39.657Z,3.78
2024-04-11T15:35:11.639Z,4.10
2024-04-11T15:38:06.924Z,4.35
2024-04-11T15:40:34.764Z,3.78
2024-04-11T15:43:05.398Z,4.10
2024-04-11T15:45:54.622Z,3.75
2024-04-11T15:48:23.032Z,3.47
2024-04-11T15:50:51.175Z,3.92
2024-04-11T15:53:18.681Z,3.95
2024-04-11T15:55:49.758Z,3.70
2024-04-11T15:58:26.415Z,4.18
2024-04-11T16:00:55.214Z,4.72
2024-04-11T16:03:24.352Z,4.18
2024-04-11T16:05:54.880Z,3.83
2024-04-11T16:08:25.647Z,4.38
2024-04-11T16:10:56.132Z,4.32
2024-04-11T16:13:29.134Z,3.90
2024-04-11T16:15:58.149Z,3.97
2024-04-11T16:18:28.827Z,4.25
2024-04-11T16:21:01.681Z,4.28
2024-04-11T16:23:35.904Z,5.32
2024-04-11T16:26:15.950Z,5.20
2024-04-11T16:28:43.446Z,5.15
2024-04-11T16:31:26.859Z,5.07
2024-04-11T16:33:59.161Z,4.82
2024-04-11T16:36:31.900Z,4.95
2024-04-11T16:39:19.434Z,5.70
2024-04-11T16:41:51.744Z,5.28
2024-04-11T16:44:25.451Z,5.25
2024-04-11T16:46:57.255Z,5.88
2024-04-11T16:49:37.362Z,5.90
2024-04-11T16:52:09.748Z,4.78
2024-04-11T16:54:44.870Z,4.78
2024-04-11T16:57:15.705Z,5.50
2024-04-11T16:59:44.308Z,5.68
2024-04-11T17:02:13.016Z,5.82
2024-04-11T17:04:47.061Z,5.60
2024-04-11T17:07:26.151Z,6.00
2024-04-11T17:09:59.272Z,6.25
2024-04-11T17:12:33.760Z,6.32
2024-04-11T17:15:02.679Z,7.03
2024-04-11T17:17:38.204Z,6.25
2024-04-11T17:20:21.600Z,5.93
2024-04-11T17:25:34.828Z,6.72
2024-04-11T17:28:35.420Z,18.48
2024-04-11T17:31:06.075Z,8.05
2024-04-11T17:33:37.520Z,11.98
2024-04-11T17:36:25.315Z,5.97
2024-04-11T17:39:02.324Z,6.57
2024-04-11T17:41:39.108Z,7.70
2024-04-11T17:44:13.386Z,6.75
2024-04-11T17:47:04.364Z,6.40
2024-04-11T17:49:40.967Z,6.80
2024-04-11T17:52:25.465Z,6.50
2024-04-11T17:55:06.750Z,6.82
2024-04-11T17:57:34.471Z,7.10
2024-04-11T18:00:05.336Z,7.00
2024-04-11T18:02:36.077Z,7.35
2024-04-11T18:05:09.871Z,6.95
2024-04-11T18:07:39.065Z,7.82
2024-04-11T18:10:10.614Z,7.90
2024-04-11T18:12:40.817Z,7.40
2024-04-11T18:15:10.974Z,7.32
2024-04-11T18:17:38.508Z,7.32
2024-04-11T18:20:12.187Z,7.68
2024-04-11T18:22:43.100Z,7.70
2024-04-11T18:25:11.162Z,7.43
2024-04-11T18:27:41.736Z,7.75
2024-04-11T18:30:24.154Z,7.00
2024-04-11T18:32:53.995Z,6.93
2024-04-11T18:35:24.481Z,7.60
2024-04-11T18:37:55.515Z,8.13
2024-04-11T18:40:26.731Z,7.88
2024-04-11T18:43:17.193Z,7.45
2024-04-11T18:45:52.012Z,8.57
2024-04-11T18:48:38.879Z,7.60
2024-04-11T18:51:08.092Z,8.15
2024-04-11T18:53:36.694Z,8.27
2024-04-11T18:56:08.445Z,7.68
2024-04-11T18:58:44.451Z,7.43
2024-04-11T19:01:19.084Z,7.28
2024-04-11T19:03:46.751Z,7.85
2024-04-11T19:06:17.958Z,7.25
2024-04-11T19:08:49.603Z,8.13
2024-04-11T19:11:22.022Z,6.90
2024-04-11T19:13:56.445Z,7.50
2024-04-11T19:16:26.611Z,6.70
2024-04-11T19:18:58.197Z,6.28
2024-04-11T19:21:27.077Z,6.65
2024-04-11T19:24:29.963Z,6.28
2024-04-11T19:26:58.968Z,5.00
2024-04-11T19:29:38.829Z,5.53
2024-04-11T19:32:06.997Z,5.60
2024-04-11T19:34:34.473Z,5.45
2024-04-11T19:37:06.335Z,5.68
2024-04-11T19:39:43.973Z,5.22
2024-04-11T19:42:19.368Z,6.05
2024-04-11T19:44:50.445Z,5.43
2024-04-11T19:47:27.746Z,5.18
2024-04-11T19:50:07.342Z,6.32
2024-04-11T19:52:35.376Z,5.90
2024-04-11T19:55:10.321Z,4.68
2024-04-11T19:57:49.845Z,4.47
2024-04-11T20:00:34.802Z,5.40
2024-04-11T20:03:30.661Z,5.18
2024-04-11T20:06:09.126Z,5.47
2024-04-11T20:08:38.823Z,4.47
2024-04-11T20:11:20.020Z,4.63
2024-04-11T20:13:48.517Z,4.20
2024-04-11T20:16:22.517Z,4.35
2024-04-11T20:18:54.934Z,4.82
2024-04-11T20:21:25.729Z,3.95
2024-04-11T20:23:58.536Z,4.55
2024-04-11T20:26:31.845Z,3.90
2024-04-11T20:29:06.774Z,3.67
2024-04-11T20:31:35.291Z,3.90
2024-04-11T20:34:09.388Z,4.45
2024-04-11T20:39:11.625Z,3.65
2024-04-11T20:42:03.403Z,4.35
2024-04-11T20:44:41.717Z,3.85
2024-04-11T20:47:13.523Z,4.05
2024-04-11T20:49:44.431Z,3.67
2024-04-11T20:52:32.117Z,3.40
2024-04-11T20:55:19.269Z,3.47
2024-04-11T20:58:05.479Z,4.07
2024-04-11T21:00:51.920Z,3.60
2024-04-11T21:03:38.126Z,3.85
2024-04-11T21:06:25.467Z,3.88
2024-04-11T21:09:11.745Z,3.80
2024-04-11T21:11:58.753Z,3.95
2024-04-11T21:14:44.942Z,3.60
2024-04-11T21:17:31.675Z,4.03
2024-04-11T21:20:17.962Z,3.92
2024-04-11T21:23:04.722Z,3.70
2024-04-11T21:25:50.674Z,3.53
2024-04-11T21:28:37.535Z,3.60
2024-04-11T21:31:23.704Z,4.53
2024-04-11T21:33:51.755Z,4.47
2024-04-11T21:36:26.004Z,3.83
2024-04-11T21:38:54.057Z,3.58
2024-04-11T21:41:37.285Z,4.13
2024-04-11T21:44:05.909Z,4.13
2024-04-11T21:46:39.799Z,4.43
2024-04-11T21:49:09.798Z,4.43
2024-04-11T21:51:42.528Z,4.40
2024-04-11T21:54:10.883Z,4.35
2024-04-11T21:56:43.175Z,4.05
2024-04-11T21:59:16.026Z,3.90
2024-04-11T22:01:55.445Z,4.13
2024-04-11T22:04:41.996Z,4.25
2024-04-11T22:07:12.576Z,3.97
2024-04-11T22:09:44.836Z,4.38
2024-04-11T22:12:13.418Z,3.80
2024-04-11T22:14:46.999Z,4.57
2024-04-11T22:17:21.872Z,4.30
2024-04-11T22:20:14.413Z,4.18
2024-04-11T22:22:58.992Z,5.90
2024-04-11T22:25:28.560Z,5.82
2024-04-11T22:28:02.601Z,6.40
2024-04-11T22:30:34.380Z,9.07
2024-04-11T22:33:03.369Z,4.93
2024-04-11T22:35:31.608Z,4.40
2024-04-11T22:37:59.387Z,4.18
2024-04-11T22:40:27.365Z,3.88
2024-04-11T22:42:54.971Z,4.82
2024-04-11T22:45:30.698Z,4.30
2024-04-11T22:47:58.650Z,5.57
2024-04-11T22:50:26.902Z,5.03
2024-04-11T22:52:54.472Z,4.75
2024-04-11T22:55:26.039Z,5.32
2024-04-11T22:57:59.365Z,5.03
2024-04-11T23:00:31.606Z,5.80
2024-04-11T23:03:02.472Z,5.47
2024-04-11T23:05:35.612Z,4.43
2024-04-11T23:08:06.974Z,4.00
2024-04-11T23:10:41.407Z,3.50
2024-04-11T23:13:10.717Z,3.95
2024-04-11T23:15:59.087Z,5.20
2024-04-11T23:18:39.359Z,4.35
2024-04-11T23:21:10.757Z,3.78
2024-04-11T23:23:42.792Z,4.15
2024-04-11T23:26:16.298Z,4.47
2024-04-11T23:28:49.296Z,4.65
2024-04-11T23:31:18.361Z,4.70
2024-04-11T23:33:58.078Z,4.65
2024-04-11T23:36:29.923Z,4.55
2024-04-11T23:39:01.262Z,4.20
2024-04-11T23:41:35.800Z,4.38
2024-04-11T23:44:04.708Z,4.15
2024-04-11T23:46:34.240Z,5.28
2024-04-11T23:49:09.347Z,4.00
2024-04-11T23:51:51.007Z,4.18
2024-04-11T23:54:21.447Z,4.80
2024-04-11T23:57:01.720Z,4.35
2024-04-11T23:59:39.763Z,4.50
